sensor_id;sensor_type;location;lat;lon;timestamp;P1;durP1;ratioP1;P2;durP2;ratioP2
5882;SDS011;2967;51.488;6.618;2022-12-16T00:04:09;70.70;;;47.60;;
5882;SDS011;2967;51.488;6.618;2022-12-16T00:09:11;72.00;;;46.45;;
5882;SDS011;2967;51.488;6.618;2022-12-16T00:14:14;70.05;;;45.25;;
5882;SDS011;2967;51.488;6.618;2022-12-16T00:19:18;66.17;;;44.50;;
5882;SDS011;2967;51.488;6.618;2022-12-16T00:24:20;71.40;;;45.40;;
5882;SDS011;2967;51.488;6.618;2022-12-16T00:29:23;70.90;;;47.03;;
5882;SDS011;2967;51.488;6.618;2022-12-16T00:34:27;66.70;;;46.10;;
5882;SDS011;2967;51.488;6.618;2022-12-16T00:39:29;72.40;;;47.10;;
5882;SDS011;2967;51.488;6.618;2022-12-16T00:44:32;68.53;;;45.45;;
5882;SDS011;2967;51.488;6.618;2022-12-16T00:49:36;64.10;;;44.90;;
5882;SDS011;2967;51.488;6.618;2022-12-16T00:54:39;69.80;;;44.63;;
5882;SDS011;2967;51.488;6.618;2022-12-16T00:59:42;65.78;;;44.63;;
5882;SDS011;2967;51.488;6.618;2022-12-16T01:04:45;72.60;;;46.88;;
5882;SDS011;2967;51.488;6.618;2022-12-16T01:09:48;65.97;;;44.50;;
5882;SDS011;2967;51.488;6.618;2022-12-16T01:14:52;66.90;;;44.35;;
5882;SDS011;2967;51.488;6.618;2022-12-16T01:19:58;67.55;;;45.25;;
5882;SDS011;2967;51.488;6.618;2022-12-16T01:25:02;73.13;;;45.00;;
5882;SDS011;2967;51.488;6.618;2022-12-16T01:30:05;68.45;;;45.45;;
5882;SDS011;2967;51.488;6.618;2022-12-16T01:35:11;70.38;;;45.42;;
5882;SDS011;2967;51.488;6.618;2022-12-16T01:40:33;64.43;;;45.03;;
5882;SDS011;2967;51.488;6.618;2022-12-16T01:45:36;66.07;;;45.08;;
5882;SDS011;2967;51.488;6.618;2022-12-16T01:50:40;62.73;;;42.73;;
5882;SDS011;2967;51.488;6.618;2022-12-16T01:55:44;64.07;;;42.53;;
5882;SDS011;2967;51.488;6.618;2022-12-16T02:06:02;67.50;;;43.25;;
5882;SDS011;2967;51.488;6.618;2022-12-16T02:11:09;63.72;;;42.15;;
5882;SDS011;2967;51.488;6.618;2022-12-16T02:16:23;63.20;;;42.57;;
5882;SDS011;2967;51.488;6.618;2022-12-16T02:21:41;61.47;;;43.17;;
5882;SDS011;2967;51.488;6.618;2022-12-16T02:27:05;60.95;;;39.65;;
5882;SDS011;2967;51.488;6.618;2022-12-16T02:32:35;59.22;;;42.10;;
5882;SDS011;2967;51.488;6.618;2022-12-16T02:37:49;61.35;;;40.65;;
5882;SDS011;2967;51.488;6.618;2022-12-16T02:42:59;61.17;;;42.33;;
5882;SDS011;2967;51.488;6.618;2022-12-16T02:48:10;61.33;;;42.53;;
5882;SDS011;2967;51.488;6.618;2022-12-16T02:53:13;64.47;;;42.10;;
5882;SDS011;2967;51.488;6.618;2022-12-16T02:58:17;63.13;;;41.17;;
5882;SDS011;2967;51.488;6.618;2022-12-16T03:03:29;61.80;;;42.00;;
5882;SDS011;2967;51.488;6.618;2022-12-16T03:08:38;62.15;;;42.50;;
5882;SDS011;2967;51.488;6.618;2022-12-16T03:13:43;63.22;;;43.13;;
5882;SDS011;2967;51.488;6.618;2022-12-16T03:18:53;61.83;;;42.27;;
5882;SDS011;2967;51.488;6.618;2022-12-16T03:23:58;64.13;;;41.90;;
5882;SDS011;2967;51.488;6.618;2022-12-16T03:29:04;66.45;;;44.17;;
5882;SDS011;2967;51.488;6.618;2022-12-16T03:34:12;64.43;;;42.38;;
5882;SDS011;2967;51.488;6.618;2022-12-16T03:39:19;66.97;;;45.25;;
5882;SDS011;2967;51.488;6.618;2022-12-16T03:44:24;71.53;;;45.53;;
5882;SDS011;2967;51.488;6.618;2022-12-16T03:49:29;69.75;;;46.15;;
5882;SDS011;2967;51.488;6.618;2022-12-16T03:54:32;71.72;;;46.03;;
5882;SDS011;2967;51.488;6.618;2022-12-16T03:59:35;69.13;;;44.78;;
5882;SDS011;2967;51.488;6.618;2022-12-16T04:04:38;74.50;;;48.15;;
5882;SDS011;2967;51.488;6.618;2022-12-16T04:09:41;84.90;;;49.80;;
5882;SDS011;2967;51.488;6.618;2022-12-16T04:14:44;77.57;;;50.25;;
5882;SDS011;2967;51.488;6.618;2022-12-16T04:20:07;77.22;;;50.15;;
5882;SDS011;2967;51.488;6.618;2022-12-16T04:25:33;84.15;;;52.45;;
5882;SDS011;2967;51.488;6.618;2022-12-16T04:30:37;83.05;;;51.75;;
5882;SDS011;2967;51.488;6.618;2022-12-16T04:35:41;86.47;;;52.58;;
5882;SDS011;2967;51.488;6.618;2022-12-16T04:41:01;83.55;;;53.08;;
5882;SDS011;2967;51.488;6.618;2022-12-16T04:46:22;80.50;;;51.43;;
5882;SDS011;2967;51.488;6.618;2022-12-16T04:51:43;111.00;;;72.30;;
5882;SDS011;2967;51.488;6.618;2022-12-16T04:57:03;78.70;;;50.88;;
5882;SDS011;2967;51.488;6.618;2022-12-16T05:02:24;76.28;;;48.78;;
5882;SDS011;2967;51.488;6.618;2022-12-16T05:07:45;72.47;;;47.80;;
5882;SDS011;2967;51.488;6.618;2022-12-16T05:13:06;71.57;;;47.13;;
5882;SDS011;2967;51.488;6.618;2022-12-16T05:18:26;75.22;;;47.78;;
5882;SDS011;2967;51.488;6.618;2022-12-16T05:23:47;72.38;;;48.40;;
5882;SDS011;2967;51.488;6.618;2022-12-16T05:29:08;74.80;;;47.97;;
5882;SDS011;2967;51.488;6.618;2022-12-16T05:34:29;73.80;;;47.78;;
5882;SDS011;2967;51.488;6.618;2022-12-16T05:39:50;75.15;;;46.60;;
5882;SDS011;2967;51.488;6.618;2022-12-16T05:45:10;74.93;;;46.80;;
5882;SDS011;2967;51.488;6.618;2022-12-16T05:50:31;76.07;;;47.80;;
5882;SDS011;2967;51.488;6.618;2022-12-16T05:55:53;70.03;;;47.40;;
5882;SDS011;2967;51.488;6.618;2022-12-16T06:01:13;71.80;;;44.55;;
5882;SDS011;2967;51.488;6.618;2022-12-16T06:06:34;74.40;;;45.80;;
5882;SDS011;2967;51.488;6.618;2022-12-16T06:11:56;104.43;;;66.05;;
5882;SDS011;2967;51.488;6.618;2022-12-16T06:17:16;77.05;;;46.28;;
5882;SDS011;2967;51.488;6.618;2022-12-16T06:22:37;74.50;;;47.40;;
5882;SDS011;2967;51.488;6.618;2022-12-16T06:27:58;71.57;;;44.97;;
5882;SDS011;2967;51.488;6.618;2022-12-16T06:33:19;73.28;;;46.28;;
5882;SDS011;2967;51.488;6.618;2022-12-16T06:38:39;130.43;;;80.93;;
5882;SDS011;2967;51.488;6.618;2022-12-16T06:44:01;75.25;;;48.55;;
5882;SDS011;2967;51.488;6.618;2022-12-16T06:49:21;74.40;;;46.90;;
5882;SDS011;2967;51.488;6.618;2022-12-16T06:54:41;73.87;;;47.40;;
5882;SDS011;2967;51.488;6.618;2022-12-16T07:00:04;68.47;;;46.10;;
5882;SDS011;2967;51.488;6.618;2022-12-16T07:05:21;80.63;;;48.47;;
5882;SDS011;2967;51.488;6.618;2022-12-16T07:10:41;75.05;;;47.35;;
5882;SDS011;2967;51.488;6.618;2022-12-16T07:16:18;74.22;;;46.80;;
5882;SDS011;2967;51.488;6.618;2022-12-16T07:21:38;72.30;;;47.65;;
5882;SDS011;2967;51.488;6.618;2022-12-16T07:26:58;73.28;;;46.78;;
5882;SDS011;2967;51.488;6.618;2022-12-16T07:32:20;69.93;;;45.25;;
5882;SDS011;2967;51.488;6.618;2022-12-16T07:37:40;72.00;;;44.60;;
5882;SDS011;2967;51.488;6.618;2022-12-16T07:43:01;68.15;;;44.40;;
5882;SDS011;2967;51.488;6.618;2022-12-16T07:48:22;67.25;;;44.95;;
5882;SDS011;2967;51.488;6.618;2022-12-16T07:53:43;67.93;;;44.35;;
5882;SDS011;2967;51.488;6.618;2022-12-16T07:59:03;71.40;;;44.73;;
5882;SDS011;2967;51.488;6.618;2022-12-16T08:04:25;68.20;;;41.70;;
5882;SDS011;2967;51.488;6.618;2022-12-16T08:09:45;64.00;;;40.58;;
5882;SDS011;2967;51.488;6.618;2022-12-16T08:15:06;60.35;;;40.33;;
5882;SDS011;2967;51.488;6.618;2022-12-16T08:20:28;66.93;;;43.03;;
5882;SDS011;2967;51.488;6.618;2022-12-16T08:25:49;70.72;;;44.45;;
5882;SDS011;2967;51.488;6.618;2022-12-16T08:31:09;68.90;;;44.67;;
5882;SDS011;2967;51.488;6.618;2022-12-16T08:36:31;71.50;;;46.17;;
5882;SDS011;2967;51.488;6.618;2022-12-16T08:41:51;74.15;;;47.05;;
5882;SDS011;2967;51.488;6.618;2022-12-16T08:47:11;75.57;;;47.08;;
5882;SDS011;2967;51.488;6.618;2022-12-16T08:52:32;78.85;;;49.67;;
5882;SDS011;2967;51.488;6.618;2022-12-16T08:57:53;79.18;;;50.03;;
5882;SDS011;2967;51.488;6.618;2022-12-16T09:03:14;75.90;;;48.25;;
5882;SDS011;2967;51.488;6.618;2022-12-16T09:08:36;84.40;;;48.85;;
5882;SDS011;2967;51.488;6.618;2022-12-16T09:13:57;74.97;;;49.47;;
5882;SDS011;2967;51.488;6.618;2022-12-16T09:19:17;82.43;;;51.60;;
5882;SDS011;2967;51.488;6.618;2022-12-16T09:24:39;82.65;;;51.20;;
5882;SDS011;2967;51.488;6.618;2022-12-16T09:29:59;88.60;;;53.63;;
5882;SDS011;2967;51.488;6.618;2022-12-16T09:35:19;87.10;;;52.90;;
5882;SDS011;2967;51.488;6.618;2022-12-16T09:40:41;86.37;;;50.03;;
5882;SDS011;2967;51.488;6.618;2022-12-16T09:46:03;81.35;;;49.63;;
5882;SDS011;2967;51.488;6.618;2022-12-16T09:51:32;88.70;;;50.93;;
5882;SDS011;2967;51.488;6.618;2022-12-16T09:56:54;78.40;;;49.53;;
5882;SDS011;2967;51.488;6.618;2022-12-16T10:02:17;77.97;;;49.40;;
5882;SDS011;2967;51.488;6.618;2022-12-16T10:07:39;84.25;;;50.03;;
5882;SDS011;2967;51.488;6.618;2022-12-16T10:13:21;78.63;;;49.30;;
5882;SDS011;2967;51.488;6.618;2022-12-16T10:18:51;87.65;;;51.03;;
5882;SDS011;2967;51.488;6.618;2022-12-16T10:24:20;80.13;;;47.25;;
5882;SDS011;2967;51.488;6.618;2022-12-16T10:29:50;80.22;;;47.83;;
5882;SDS011;2967;51.488;6.618;2022-12-16T10:35:15;77.13;;;45.83;;
5882;SDS011;2967;51.488;6.618;2022-12-16T10:40:39;80.30;;;48.22;;
5882;SDS011;2967;51.488;6.618;2022-12-16T10:46:01;78.55;;;48.47;;
5882;SDS011;2967;51.488;6.618;2022-12-16T10:51:26;82.77;;;47.37;;
5882;SDS011;2967;51.488;6.618;2022-12-16T10:56:49;82.37;;;49.50;;
5882;SDS011;2967;51.488;6.618;2022-12-16T11:02:17;90.50;;;49.95;;
5882;SDS011;2967;51.488;6.618;2022-12-16T11:07:49;96.55;;;52.70;;
5882;SDS011;2967;51.488;6.618;2022-12-16T11:13:15;102.00;;;50.42;;
5882;SDS011;2967;51.488;6.618;2022-12-16T11:18:46;103.33;;;52.17;;
5882;SDS011;2967;51.488;6.618;2022-12-16T11:24:12;103.75;;;53.45;;
5882;SDS011;2967;51.488;6.618;2022-12-16T11:29:33;99.95;;;48.88;;
5882;SDS011;2967;51.488;6.618;2022-12-16T11:35:11;104.70;;;52.30;;
5882;SDS011;2967;51.488;6.618;2022-12-16T11:40:34;88.35;;;48.10;;
5882;SDS011;2967;51.488;6.618;2022-12-16T11:45:56;86.05;;;46.72;;
5882;SDS011;2967;51.488;6.618;2022-12-16T11:51:20;89.90;;;47.10;;
5882;SDS011;2967;51.488;6.618;2022-12-16T11:56:42;89.10;;;44.85;;
5882;SDS011;2967;51.488;6.618;2022-12-16T12:02:07;96.20;;;48.13;;
5882;SDS011;2967;51.488;6.618;2022-12-16T12:07:35;90.80;;;47.38;;
5882;SDS011;2967;51.488;6.618;2022-12-16T12:13:10;106.27;;;48.10;;
5882;SDS011;2967;51.488;6.618;2022-12-16T12:18:48;113.55;;;48.35;;
5882;SDS011;2967;51.488;6.618;2022-12-16T12:24:19;118.10;;;49.97;;
5882;SDS011;2967;51.488;6.618;2022-12-16T12:29:50;124.17;;;50.07;;
5882;SDS011;2967;51.488;6.618;2022-12-16T12:35:24;160.50;;;66.63;;
5882;SDS011;2967;51.488;6.618;2022-12-16T12:40:58;135.88;;;52.15;;
5882;SDS011;2967;51.488;6.618;2022-12-16T12:46:26;119.25;;;51.67;;
5882;SDS011;2967;51.488;6.618;2022-12-16T12:51:54;125.40;;;53.67;;
5882;SDS011;2967;51.488;6.618;2022-12-16T12:57:24;164.85;;;77.50;;
5882;SDS011;2967;51.488;6.618;2022-12-16T13:02:47;104.47;;;49.35;;
5882;SDS011;2967;51.488;6.618;2022-12-16T13:14:52;142.15;;;65.38;;
5882;SDS011;2967;51.488;6.618;2022-12-16T13:20:34;105.80;;;50.33;;
5882;SDS011;2967;51.488;6.618;2022-12-16T13:25:57;100.23;;;48.90;;
5882;SDS011;2967;51.488;6.618;2022-12-16T13:31:25;101.25;;;49.55;;
5882;SDS011;2967;51.488;6.618;2022-12-16T13:36:56;114.40;;;50.57;;
5882;SDS011;2967;51.488;6.618;2022-12-16T13:48:26;97.18;;;49.67;;
5882;SDS011;2967;51.488;6.618;2022-12-16T13:53:55;99.80;;;50.35;;
5882;SDS011;2967;51.488;6.618;2022-12-16T13:59:19;97.53;;;50.47;;
5882;SDS011;2967;51.488;6.618;2022-12-16T14:11:34;94.30;;;50.03;;
5882;SDS011;2967;51.488;6.618;2022-12-16T14:17:10;103.03;;;52.88;;
5882;SDS011;2967;51.488;6.618;2022-12-16T14:22:42;109.90;;;57.67;;
5882;SDS011;2967;51.488;6.618;2022-12-16T14:28:16;91.47;;;51.00;;
5882;SDS011;2967;51.488;6.618;2022-12-16T14:33:41;97.97;;;52.47;;
5882;SDS011;2967;51.488;6.618;2022-12-16T14:39:02;112.35;;;55.30;;
5882;SDS011;2967;51.488;6.618;2022-12-16T14:44:24;110.30;;;52.63;;
5882;SDS011;2967;51.488;6.618;2022-12-16T14:49:47;91.38;;;51.65;;
5882;SDS011;2967;51.488;6.618;2022-12-16T14:55:09;250.57;;;156.70;;
5882;SDS011;2967;51.488;6.618;2022-12-16T15:00:33;106.43;;;60.27;;
5882;SDS011;2967;51.488;6.618;2022-12-16T15:05:54;100.85;;;52.88;;
5882;SDS011;2967;51.488;6.618;2022-12-16T15:11:16;98.63;;;55.47;;
5882;SDS011;2967;51.488;6.618;2022-12-16T15:16:40;103.22;;;53.92;;
5882;SDS011;2967;51.488;6.618;2022-12-16T15:22:02;103.80;;;55.53;;
5882;SDS011;2967;51.488;6.618;2022-12-16T15:27:23;93.43;;;51.00;;
5882;SDS011;2967;51.488;6.618;2022-12-16T15:32:51;100.67;;;54.70;;
5882;SDS011;2967;51.488;6.618;2022-12-16T15:38:15;106.00;;;54.55;;
5882;SDS011;2967;51.488;6.618;2022-12-16T15:43:43;103.30;;;57.03;;
5882;SDS011;2967;51.488;6.618;2022-12-16T15:49:06;221.15;;;136.23;;
5882;SDS011;2967;51.488;6.618;2022-12-16T16:00:17;87.32;;;52.53;;
5882;SDS011;2967;51.488;6.618;2022-12-16T16:05:42;94.47;;;53.80;;
5882;SDS011;2967;51.488;6.618;2022-12-16T16:11:02;91.82;;;52.95;;
5882;SDS011;2967;51.488;6.618;2022-12-16T16:16:23;92.00;;;53.42;;
5882;SDS011;2967;51.488;6.618;2022-12-16T16:21:45;251.57;;;163.10;;
5882;SDS011;2967;51.488;6.618;2022-12-16T16:27:07;92.55;;;55.33;;
5882;SDS011;2967;51.488;6.618;2022-12-16T16:32:30;85.88;;;54.13;;
5882;SDS011;2967;51.488;6.618;2022-12-16T16:37:52;93.55;;;55.80;;
5882;SDS011;2967;51.488;6.618;2022-12-16T16:43:18;90.72;;;53.30;;
5882;SDS011;2967;51.488;6.618;2022-12-16T16:48:39;95.05;;;55.20;;
5882;SDS011;2967;51.488;6.618;2022-12-16T16:54:15;112.72;;;68.15;;
5882;SDS011;2967;51.488;6.618;2022-12-16T16:59:37;107.30;;;61.60;;
5882;SDS011;2967;51.488;6.618;2022-12-16T17:04:57;102.03;;;60.80;;
5882;SDS011;2967;51.488;6.618;2022-12-16T17:10:18;101.10;;;60.05;;
5882;SDS011;2967;51.488;6.618;2022-12-16T17:15:39;185.75;;;113.95;;
5882;SDS011;2967;51.488;6.618;2022-12-16T17:20:59;101.50;;;60.35;;
5882;SDS011;2967;51.488;6.618;2022-12-16T17:26:21;99.30;;;57.25;;
5882;SDS011;2967;51.488;6.618;2022-12-16T17:31:42;102.10;;;57.85;;
5882;SDS011;2967;51.488;6.618;2022-12-16T17:36:58;106.18;;;59.97;;
5882;SDS011;2967;51.488;6.618;2022-12-16T17:42:20;109.53;;;59.73;;
5882;SDS011;2967;51.488;6.618;2022-12-16T17:47:47;109.60;;;56.67;;
5882;SDS011;2967;51.488;6.618;2022-12-16T17:53:07;122.80;;;60.42;;
5882;SDS011;2967;51.488;6.618;2022-12-16T17:58:30;152.15;;;81.70;;
5882;SDS011;2967;51.488;6.618;2022-12-16T18:03:51;121.80;;;60.30;;
5882;SDS011;2967;51.488;6.618;2022-12-16T18:09:11;224.60;;;123.03;;
5882;SDS011;2967;51.488;6.618;2022-12-16T18:14:32;118.60;;;59.15;;
5882;SDS011;2967;51.488;6.618;2022-12-16T18:19:53;114.93;;;55.67;;
5882;SDS011;2967;51.488;6.618;2022-12-16T18:25:14;115.72;;;57.42;;
5882;SDS011;2967;51.488;6.618;2022-12-16T18:30:36;144.15;;;75.97;;
5882;SDS011;2967;51.488;6.618;2022-12-16T18:35:56;116.72;;;57.85;;
5882;SDS011;2967;51.488;6.618;2022-12-16T18:41:17;124.53;;;55.53;;
5882;SDS011;2967;51.488;6.618;2022-12-16T18:46:40;121.45;;;56.15;;
5882;SDS011;2967;51.488;6.618;2022-12-16T18:52:00;117.13;;;55.55;;
5882;SDS011;2967;51.488;6.618;2022-12-16T18:57:21;112.73;;;56.27;;
5882;SDS011;2967;51.488;6.618;2022-12-16T19:02:42;107.03;;;53.47;;
5882;SDS011;2967;51.488;6.618;2022-12-16T19:08:03;139.82;;;74.78;;
5882;SDS011;2967;51.488;6.618;2022-12-16T19:13:23;108.45;;;52.95;;
5882;SDS011;2967;51.488;6.618;2022-12-16T19:18:44;114.83;;;54.77;;
5882;SDS011;2967;51.488;6.618;2022-12-16T19:24:05;109.20;;;53.13;;
5882;SDS011;2967;51.488;6.618;2022-12-16T19:29:25;110.82;;;47.85;;
5882;SDS011;2967;51.488;6.618;2022-12-16T19:34:47;105.15;;;48.78;;
5882;SDS011;2967;51.488;6.618;2022-12-16T19:40:09;168.32;;;93.30;;
5882;SDS011;2967;51.488;6.618;2022-12-16T19:45:30;149.55;;;70.88;;
5882;SDS011;2967;51.488;6.618;2022-12-16T19:50:56;113.57;;;55.03;;
5882;SDS011;2967;51.488;6.618;2022-12-16T19:56:16;125.77;;;57.17;;
5882;SDS011;2967;51.488;6.618;2022-12-16T20:01:37;123.30;;;58.60;;
5882;SDS011;2967;51.488;6.618;2022-12-16T20:06:59;139.82;;;61.97;;
5882;SDS011;2967;51.488;6.618;2022-12-16T20:12:23;139.65;;;61.15;;
5882;SDS011;2967;51.488;6.618;2022-12-16T20:17:44;143.63;;;61.58;;
5882;SDS011;2967;51.488;6.618;2022-12-16T20:23:06;156.63;;;65.55;;
5882;SDS011;2967;51.488;6.618;2022-12-16T20:28:26;153.77;;;63.97;;
5882;SDS011;2967;51.488;6.618;2022-12-16T20:33:51;165.27;;;74.70;;
5882;SDS011;2967;51.488;6.618;2022-12-16T20:39:12;171.50;;;82.15;;
5882;SDS011;2967;51.488;6.618;2022-12-16T20:44:33;150.27;;;67.60;;
5882;SDS011;2967;51.488;6.618;2022-12-16T20:49:56;154.02;;;68.97;;
5882;SDS011;2967;51.488;6.618;2022-12-16T20:55:18;148.77;;;67.80;;
5882;SDS011;2967;51.488;6.618;2022-12-16T21:00:38;150.50;;;70.43;;
5882;SDS011;2967;51.488;6.618;2022-12-16T21:05:59;159.23;;;72.57;;
5882;SDS011;2967;51.488;6.618;2022-12-16T21:11:20;181.85;;;88.57;;
5882;SDS011;2967;51.488;6.618;2022-12-16T21:16:40;166.30;;;79.05;;
5882;SDS011;2967;51.488;6.618;2022-12-16T21:22:01;219.55;;;113.57;;
5882;SDS011;2967;51.488;6.618;2022-12-16T21:27:22;161.60;;;74.80;;
5882;SDS011;2967;51.488;6.618;2022-12-16T21:32:43;165.23;;;71.95;;
5882;SDS011;2967;51.488;6.618;2022-12-16T21:38:06;201.43;;;81.65;;
5882;SDS011;2967;51.488;6.618;2022-12-16T21:43:37;184.63;;;80.22;;
5882;SDS011;2967;51.488;6.618;2022-12-16T21:48:57;169.18;;;71.95;;
5882;SDS011;2967;51.488;6.618;2022-12-16T21:54:17;172.88;;;76.43;;
5882;SDS011;2967;51.488;6.618;2022-12-16T21:59:39;181.07;;;76.78;;
5882;SDS011;2967;51.488;6.618;2022-12-16T22:04:59;168.20;;;73.47;;
5882;SDS011;2967;51.488;6.618;2022-12-16T22:10:21;164.25;;;72.20;;
5882;SDS011;2967;51.488;6.618;2022-12-16T22:15:43;209.70;;;97.20;;
5882;SDS011;2967;51.488;6.618;2022-12-16T22:21:13;190.77;;;79.82;;
5882;SDS011;2967;51.488;6.618;2022-12-16T22:26:34;175.00;;;77.07;;
5882;SDS011;2967;51.488;6.618;2022-12-16T22:31:58;161.57;;;71.55;;
5882;SDS011;2967;51.488;6.618;2022-12-16T22:37:18;151.23;;;67.87;;
5882;SDS011;2967;51.488;6.618;2022-12-16T22:42:38;130.48;;;63.30;;
5882;SDS011;2967;51.488;6.618;2022-12-16T22:48:00;131.05;;;59.67;;
5882;SDS011;2967;51.488;6.618;2022-12-16T22:53:20;113.70;;;58.47;;
5882;SDS011;2967;51.488;6.618;2022-12-16T22:58:41;116.53;;;55.57;;
5882;SDS011;2967;51.488;6.618;2022-12-16T23:04:03;112.50;;;57.40;;
5882;SDS011;2967;51.488;6.618;2022-12-16T23:09:23;125.68;;;58.05;;
5882;SDS011;2967;51.488;6.618;2022-12-16T23:14:44;114.60;;;58.30;;
5882;SDS011;2967;51.488;6.618;2022-12-16T23:20:06;114.80;;;55.72;;
5882;SDS011;2967;51.488;6.618;2022-12-16T23:25:27;111.05;;;53.17;;
5882;SDS011;2967;51.488;6.618;2022-12-16T23:30:51;111.22;;;52.65;;
5882;SDS011;2967;51.488;6.618;2022-12-16T23:36:22;110.88;;;53.33;;
5882;SDS011;2967;51.488;6.618;2022-12-16T23:41:54;106.05;;;51.92;;
5882;SDS011;2967;51.488;6.618;2022-12-16T23:47:28;102.28;;;50.22;;
5882;SDS011;2967;51.488;6.618;2022-12-16T23:52:50;86.50;;;45.45;;
5882;SDS011;2967;51.488;6.618;2022-12-16T23:58:20;79.88;;;42.30;;
